Time;durP1;ratioP1;P1;durP2;ratioP2;P2;SDS_P1;SDS_P2;PMS_P1;PMS_P2;Temp;Humidity;BMP_temperature;BMP_pressure;BME280_temperature;BME280_humidity;BME280_pressure;Samples;Min_cycle;Max_cycle;Signal;HPM_P1;HPM_P2
2021/07/28 00:00:41;;;;;;;4.87;2.50;;;;;;;19.21;93.03;100198.94;5147459;28;20726;-79
2021/07/28 00:03:11;;;;;;;5.83;2.93;;;;;;;19.22;93.00;100204.13;5147743;28;20284;-79
2021/07/28 00:05:41;;;;;;;4.72;3.00;;;;;;;19.07;94.97;100199.97;5148225;28;20357;-76
2021/07/28 00:08:12;;;;;;;5.95;3.08;;;;;;;18.84;96.69;100185.00;5150464;28;20407;-78
2021/07/28 00:10:42;;;;;;;6.80;3.10;;;;;;;18.51;99.37;100180.53;5153817;28;20031;-77
2021/07/28 00:13:12;;;;;;;8.20;3.20;;;;;;;18.50;98.97;100168.25;5145901;28;20023;-77
2021/07/28 00:15:43;;;;;;;5.80;3.10;;;;;;;18.86;96.94;100172.47;5146292;28;20286;-77
2021/07/28 00:18:35;;;;;;;6.82;3.00;;;;;;;18.70;99.69;100171.06;5146150;28;20270;-78
2021/07/28 00:23:55;;;;;;;4.45;3.10;;;;;;;18.86;99.29;100174.25;5145840;28;20036;-78
2021/07/28 00:26:25;;;;;;;7.60;3.22;;;;;;;18.82;99.72;100176.31;5155823;28;20022;-77
2021/07/28 00:28:55;;;;;;;4.22;3.05;;;;;;;18.94;97.94;100169.25;5146698;28;20137;-79
2021/07/28 00:31:25;;;;;;;5.73;3.23;;;;;;;18.74;99.41;100156.66;5146714;28;20596;-79
2021/07/28 00:33:56;;;;;;;6.53;3.20;;;;;;;18.96;97.92;100159.38;5147250;28;20336;-79
2021/07/28 00:36:26;;;;;;;5.43;3.00;;;;;;;18.84;99.06;100162.94;5147628;28;20175;-79
2021/07/28 00:38:56;;;;;;;6.23;2.90;;;;;;;18.81;99.32;100161.41;5150023;28;20306;-79
2021/07/28 00:41:26;;;;;;;7.43;3.40;;;;;;;18.85;98.72;100162.84;5146174;28;20297;-76
2021/07/28 00:43:57;;;;;;;5.55;3.40;;;;;;;18.89;100.00;100156.34;5140099;28;20378;-78
2021/07/28 00:46:27;;;;;;;6.90;3.10;;;;;;;18.86;99.09;100158.38;5145459;28;20041;-79
2021/07/28 00:48:57;;;;;;;7.72;3.10;;;;;;;19.01;98.96;100155.41;5146423;28;20027;-76
2021/07/28 00:51:28;;;;;;;6.90;3.47;;;;;;;18.98;99.00;100154.78;5145244;28;20031;-77
2021/07/28 00:53:58;;;;;;;6.07;3.20;;;;;;;18.94;100.00;100148.88;5146716;28;20042;-78
2021/07/28 00:56:29;;;;;;;8.68;3.35;;;;;;;18.89;100.00;100159.00;5156521;28;20297;-79
2021/07/28 00:58:59;;;;;;;6.10;3.40;;;;;;;18.77;100.00;100156.44;5144981;28;20114;-79
2021/07/28 01:01:29;;;;;;;6.83;3.17;;;;;;;18.87;97.84;100158.28;5145567;28;20031;-78
2021/07/28 01:04:00;;;;;;;7.68;3.17;;;;;;;18.78;96.61;100153.66;5144957;28;20289;-77
2021/07/28 01:06:30;;;;;;;6.63;3.13;;;;;;;18.72;97.13;100152.44;5145212;28;20058;-77
2021/07/28 01:09:01;;;;;;;6.75;3.13;;;;;;;18.66;95.89;100137.03;5152792;28;20282;-79
2021/07/28 01:11:31;;;;;;;4.97;2.88;;;;;;;18.73;97.38;100141.75;5151522;28;20030;-79
2021/07/28 01:14:04;;;;;;;5.60;2.90;;;;;;;18.87;96.18;100136.22;5146133;28;20500;-79
2021/07/28 01:16:38;;;;;;;4.57;2.95;;;;;;;18.95;96.09;100132.03;5145740;28;20297;-77
2021/07/28 01:19:15;;;;;;;5.70;3.00;;;;;;;18.94;95.79;100129.50;5145987;28;20023;-76
2021/07/28 01:21:48;;;;;;;4.22;3.03;;;;;;;18.90;96.00;100131.53;5142223;28;20102;-79
2021/07/28 01:24:20;;;;;;;4.35;2.83;;;;;;;18.85;97.23;100136.34;5144232;28;20110;-78
2021/07/28 01:26:52;;;;;;;6.45;3.20;;;;;;;18.65;99.35;100140.63;5144606;28;20026;-77
2021/07/28 01:29:23;;;;;;;5.38;3.15;;;;;;;18.52;99.94;100137.22;5146867;28;20026;-77
2021/07/28 01:31:54;;;;;;;6.38;3.35;;;;;;;18.36;100.00;100139.31;5146186;28;20026;-78
2021/07/28 01:34:24;;;;;;;5.35;3.20;;;;;;;18.46;100.00;100135.00;5145248;28;20033;-79
2021/07/28 01:36:56;;;;;;;4.65;2.90;;;;;;;18.60;100.00;100142.75;5144376;28;20485;-79
2021/07/28 01:39:26;;;;;;;5.88;2.88;;;;;;;18.81;100.00;100145.50;5152739;28;20049;-79
2021/07/28 01:42:00;;;;;;;5.88;3.00;;;;;;;18.82;99.46;100148.97;5150464;28;20104;-78
2021/07/28 01:44:36;;;;;;;5.85;3.17;;;;;;;18.59;99.59;100157.81;5152000;28;20054;-78
2021/07/28 01:47:06;;;;;;;7.47;3.20;;;;;;;18.78;95.95;100158.94;5145980;28;20034;-79
2021/07/28 01:49:37;;;;;;;7.65;3.20;;;;;;;18.87;96.30;100155.63;5146437;28;20030;-79
2021/07/28 01:52:07;;;;;;;4.97;3.38;;;;;;;18.73;95.12;100147.03;5144595;28;20039;-79
2021/07/28 01:54:37;;;;;;;4.65;3.03;;;;;;;18.94;95.06;100148.88;5148804;28;20429;-77
2021/07/28 01:57:07;;;;;;;5.30;3.20;;;;;;;18.98;94.62;100149.50;5151548;28;20058;-77
2021/07/28 01:59:40;;;;;;;6.37;3.10;;;;;;;19.13;93.66;100154.44;5145756;28;20511;-76
2021/07/28 02:02:11;;;;;;;5.22;3.08;;;;;;;18.93;94.88;100144.53;5143642;28;20788;-77
2021/07/28 02:04:41;;;;;;;3.65;2.85;;;;;;;18.88;94.30;100157.31;5144791;28;20108;-79
2021/07/28 02:07:11;;;;;;;7.03;3.35;;;;;;;18.85;93.33;100160.19;5145692;28;20037;-79
2021/07/28 02:09:41;;;;;;;5.68;3.35;;;;;;;18.71;94.05;100166.63;5151736;28;20030;-75
2021/07/28 02:12:12;;;;;;;4.70;3.10;;;;;;;18.69;95.35;100163.25;5148515;28;20189;-76
2021/07/28 02:14:42;;;;;;;4.77;3.10;;;;;;;18.45;97.65;100157.13;5145620;28;20262;-76
2021/07/28 02:17:13;;;;;;;8.43;3.22;;;;;;;18.42;97.46;100160.03;5145168;28;20332;-78
2021/07/28 02:19:43;;;;;;;6.40;3.40;;;;;;;18.33;98.58;100158.06;5143902;28;20121;-79
2021/07/28 02:22:14;;;;;;;6.90;3.53;;;;;;;18.27;98.58;100155.81;5143354;28;20110;-78
2021/07/28 02:24:44;;;;;;;9.13;3.40;;;;;;;18.28;98.98;100165.47;5148401;28;20071;-77
2021/07/28 02:27:14;;;;;;;5.55;3.08;;;;;;;18.19;100.00;100163.50;5151682;28;20370;-77
2021/07/28 02:29:44;;;;;;;6.30;3.50;;;;;;;18.27;98.45;100161.13;5144906;28;20033;-77
2021/07/28 02:32:15;;;;;;;5.27;3.23;;;;;;;18.24;99.50;100167.50;5145390;28;20285;-78
2021/07/28 02:34:45;;;;;;;5.30;3.42;;;;;;;18.22;99.95;100164.13;5143676;28;20293;-78
2021/07/28 02:37:15;;;;;;;6.30;3.37;;;;;;;18.47;97.47;100164.03;5145481;28;20062;-79
2021/07/28 02:39:45;;;;;;;4.93;3.22;;;;;;;18.23;97.67;100167.59;5151888;28;20278;-78
2021/07/28 02:42:16;;;;;;;5.80;3.13;;;;;;;18.36;96.42;100166.59;5150953;28;20069;-79
2021/07/28 02:44:46;;;;;;;4.53;3.10;;;;;;;18.14;97.67;100168.28;5150723;28;20038;-78
2021/07/28 02:47:17;;;;;;;4.73;3.10;;;;;;;18.08;97.65;100163.41;5151782;28;20023;-78
2021/07/28 02:49:47;;;;;;;9.20;3.65;;;;;;;17.87;99.72;100157.91;5151832;28;20274;-78
2021/07/28 02:52:18;;;;;;;7.90;3.53;;;;;;;17.88;100.00;100156.09;5151706;28;20634;-78
2021/07/28 02:54:48;;;;;;;5.75;3.63;;;;;;;17.96;97.82;100149.28;5155443;28;20336;-78
2021/07/28 02:57:18;;;;;;;6.80;3.60;;;;;;;17.89;98.83;100160.41;5158621;28;20678;-78
2021/07/28 02:59:48;;;;;;;4.85;3.40;;;;;;;18.15;97.53;100159.38;5150317;28;20302;-79
2021/07/28 03:02:19;;;;;;;5.57;3.70;;;;;;;18.07;97.22;100159.09;5150450;28;20113;-79
2021/07/28 03:04:49;;;;;;;5.63;3.70;;;;;;;17.99;97.45;100164.09;5151719;28;20273;-76
2021/07/28 03:07:19;;;;;;;8.53;3.40;;;;;;;17.91;96.72;100163.78;5152066;28;20027;-79
2021/07/28 03:09:50;;;;;;;4.97;3.60;;;;;;;17.79;98.12;100169.97;5157271;28;20354;-75
2021/07/28 03:12:20;;;;;;;5.55;3.88;;;;;;;17.74;98.62;100169.44;5155350;28;20029;-78
2021/07/28 03:14:53;;;;;;;6.45;3.60;;;;;;;17.69;98.95;100169.75;5151706;28;20037;-76
2021/07/28 03:17:23;;;;;;;5.13;3.58;;;;;;;17.88;97.04;100169.31;5151669;28;20033;-79
2021/07/28 03:19:53;;;;;;;4.63;3.20;;;;;;;17.83;96.84;100182.03;5150734;28;20031;-79
2021/07/28 03:22:25;;;;;;;7.00;3.45;;;;;;;17.78;97.89;100179.69;5148940;28;20031;-78
2021/07/28 03:24:55;;;;;;;6.43;3.60;;;;;;;17.79;96.88;100175.28;5155709;28;20037;-78
2021/07/28 03:27:26;;;;;;;6.93;3.33;;;;;;;17.60;97.74;100177.50;5156141;28;20022;-78
2021/07/28 03:29:56;;;;;;;5.40;3.60;;;;;;;17.50;98.98;100173.81;5149109;28;20305;-79
2021/07/28 03:32:26;;;;;;;6.78;3.90;;;;;;;17.60;97.52;100175.72;5151500;28;20404;-76
2021/07/28 03:34:56;;;;;;;6.30;3.63;;;;;;;17.65;97.45;100178.88;5149586;28;20027;-76
2021/07/28 03:37:27;;;;;;;4.78;3.67;;;;;;;17.56;97.95;100179.53;5150207;28;20034;-77
2021/07/28 03:40:01;;;;;;;5.03;3.35;;;;;;;17.71;97.63;100181.09;5158155;28;20058;-77
2021/07/28 03:42:32;;;;;;;4.83;3.30;;;;;;;17.69;98.10;100184.78;5152055;28;20038;-79
2021/07/28 03:45:03;;;;;;;4.90;3.70;;;;;;;17.67;98.27;100176.13;5149236;28;20025;-75
2021/07/28 03:47:33;;;;;;;4.63;3.30;;;;;;;17.75;97.69;100181.69;5151167;28;20049;-79
2021/07/28 03:50:04;;;;;;;8.03;3.73;;;;;;;17.67;97.95;100178.78;5149224;28;20034;-79
2021/07/28 03:52:34;;;;;;;8.25;4.07;;;;;;;17.63;99.33;100190.53;5148379;28;20381;-79
2021/07/28 03:55:05;;;;;;;5.35;3.42;;;;;;;17.71;99.07;100185.53;5152230;28;20030;-77
2021/07/28 03:57:36;;;;;;;5.75;3.70;;;;;;;17.82;97.82;100183.81;5152637;28;20022;-78
2021/07/28 04:00:08;;;;;;;4.10;3.13;;;;;;;17.79;98.06;100193.78;5148400;28;20515;-78
2021/07/28 04:02:39;;;;;;;4.88;3.22;;;;;;;17.53;99.77;100189.47;5145607;28;20023;-79
2021/07/28 04:05:10;;;;;;;5.15;3.63;;;;;;;17.59;100.00;100183.72;5146670;28;20527;-78
2021/07/28 04:07:41;;;;;;;4.82;3.47;;;;;;;17.62;100.00;100179.09;5157808;28;20049;-79
2021/07/28 04:10:11;;;;;;;5.57;3.50;;;;;;;17.72;98.76;100179.28;5159653;28;20022;-79
2021/07/28 04:12:41;;;;;;;6.10;3.42;;;;;;;17.68;99.78;100169.88;5153621;28;20026;-76
2021/07/28 04:15:12;;;;;;;5.30;3.77;;;;;;;17.88;99.03;100174.59;5155714;28;20030;-77
2021/07/28 04:17:42;;;;;;;4.68;3.60;;;;;;;17.89;99.20;100171.00;5152946;28;20278;-76
2021/07/28 04:20:14;;;;;;;4.45;3.25;;;;;;;17.98;98.46;100175.63;5152990;28;20501;-78
2021/07/28 04:22:44;;;;;;;5.35;3.47;;;;;;;18.10;98.57;100180.03;5153472;28;20428;-77
2021/07/28 04:25:14;;;;;;;4.77;3.63;;;;;;;18.30;96.33;100169.72;5159628;28;20026;-79
2021/07/28 04:27:45;;;;;;;6.67;3.40;;;;;;;18.18;97.81;100167.09;5157586;28;20278;-79
2021/07/28 04:30:15;;;;;;;6.72;3.30;;;;;;;18.25;97.17;100170.97;5153979;28;20332;-80
2021/07/28 04:32:45;;;;;;;6.40;3.30;;;;;;;18.44;96.89;100177.47;5153062;28;20026;-80
2021/07/28 04:35:16;;;;;;;5.03;3.33;;;;;;;18.59;95.08;100159.59;5155178;28;21027;-80
2021/07/28 04:37:46;;;;;;;5.85;3.30;;;;;;;18.70;94.69;100171.06;5153052;28;20270;-79
2021/07/28 04:40:16;;;;;;;5.80;3.20;;;;;;;19.95;90.76;100164.75;5160949;28;20030;-78
2021/07/28 04:42:47;;;;;;;4.60;3.08;;;;;;;21.02;84.74;100165.44;5152951;28;20304;-79
2021/07/28 04:45:17;;;;;;;4.68;2.85;;;;;;;22.18;80.93;100159.53;5154923;28;20030;-79
2021/07/28 04:47:47;;;;;;;5.72;2.90;;;;;;;23.27;73.79;100146.63;5152621;28;20035;-78
2021/07/28 04:50:18;;;;;;;5.00;2.63;;;;;;;23.89;72.25;100140.66;5152107;28;20058;-79
2021/07/28 04:52:48;;;;;;;4.85;2.58;;;;;;;24.49;70.12;100147.97;5153313;28;20018;-80
2021/07/28 04:55:18;;;;;;;5.15;2.60;;;;;;;24.55;70.82;100153.56;5159675;28;20101;-80
2021/07/28 04:57:48;;;;;;;4.73;2.60;;;;;;;24.94;67.48;100144.22;5157162;28;20034;-79
2021/07/28 05:00:19;;;;;;;3.37;2.40;;;;;;;25.94;67.11;100138.97;5153883;28;20027;-77
2021/07/28 05:02:49;;;;;;;5.43;2.67;;;;;;;25.57;67.42;100154.53;5152859;28;20495;-77
2021/07/28 05:05:20;;;;;;;4.33;2.50;;;;;;;26.54;64.90;100153.06;5154570;28;20543;-80
2021/07/28 05:07:50;;;;;;;3.63;2.20;;;;;;;26.34;64.84;100149.81;5149620;28;20218;-80
2021/07/28 05:10:20;;;;;;;3.25;2.25;;;;;;;25.87;66.26;100155.88;5158104;28;20040;-80
2021/07/28 05:12:51;;;;;;;4.33;2.53;;;;;;;24.61;69.00;100157.47;5149568;28;20027;-80
2021/07/28 05:15:21;;;;;;;4.40;2.85;;;;;;;23.26;73.18;100155.63;5150744;28;20034;-80
2021/07/28 05:17:51;;;;;;;4.90;2.80;;;;;;;23.35;72.30;100159.25;5150386;28;20034;-79
2021/07/28 05:20:22;;;;;;;4.10;2.72;;;;;;;22.39;77.75;100156.81;5150294;28;20086;-78
2021/07/28 05:22:52;;;;;;;5.65;3.08;;;;;;;22.54;78.08;100166.03;5152070;28;20538;-79
2021/07/28 05:25:23;;;;;;;4.20;2.67;;;;;;;21.91;79.48;100153.19;5158296;28;20160;-79
2021/07/28 05:27:54;;;;;;;4.95;2.80;;;;;;;22.53;77.33;100159.03;5153745;28;20030;-78
2021/07/28 05:30:24;;;;;;;4.22;2.80;;;;;;;23.32;75.33;100156.84;5151464;28;20027;-79
2021/07/28 05:32:55;;;;;;;8.55;2.80;;;;;;;24.54;69.98;100157.22;5152123;28;20026;-78
2021/07/28 05:35:25;;;;;;;3.72;2.65;;;;;;;26.33;65.78;100152.66;5149396;28;20041;-78
2021/07/28 05:37:59;;;;;;;4.30;2.60;;;;;;;27.59;62.41;100156.34;5155003;28;20026;-77
2021/07/28 05:40:31;;;;;;;5.53;2.67;;;;;;;26.43;65.15;100164.06;5160189;28;20356;-79
2021/07/28 05:43:01;;;;;;;4.93;2.65;;;;;;;25.56;66.01;100173.41;5150304;28;20308;-79
2021/07/28 05:45:31;;;;;;;7.10;2.80;;;;;;;24.14;71.41;100170.16;5144274;28;20034;-79
2021/07/28 05:48:01;;;;;;;4.90;2.87;;;;;;;25.85;66.87;100163.22;5144759;28;20317;-79
2021/07/28 05:50:32;;;;;;;6.70;2.93;;;;;;;25.96;65.67;100157.56;5143992;28;20278;-79
2021/07/28 05:53:02;;;;;;;10.32;2.80;;;;;;;26.83;64.46;100159.59;5143459;28;20278;-79
2021/07/28 05:55:32;;;;;;;5.70;2.58;;;;;;;27.91;61.00;100155.41;5151033;28;20112;-78
2021/07/28 05:58:03;;;;;;;5.63;2.50;;;;;;;29.15;58.43;100159.47;5144455;28;20131;-77
2021/07/28 06:00:33;;;;;;;5.53;2.83;;;;;;;28.88;58.91;100146.59;5143798;28;20444;-78
2021/07/28 06:03:03;;;;;;;5.43;2.47;;;;;;;30.48;56.58;100156.41;5144706;28;20041;-78
2021/07/28 06:05:33;;;;;;;3.10;2.27;;;;;;;29.27;57.63;100153.44;5148573;28;20279;-76
2021/07/28 06:08:04;;;;;;;7.27;2.60;;;;;;;29.57;58.33;100157.06;5152533;28;20601;-78
2021/07/28 06:10:34;;;;;;;3.78;2.63;;;;;;;28.18;61.01;100163.88;5155366;28;20058;-79
2021/07/28 06:13:04;;;;;;;4.93;2.97;;;;;;;27.79;62.18;100163.00;5144257;28;20034;-79
2021/07/28 06:15:35;;;;;;;4.70;2.60;;;;;;;27.62;62.05;100156.00;5148297;28;20359;-79
2021/07/28 06:18:05;;;;;;;4.70;2.93;;;;;;;27.44;61.08;100160.75;5142374;28;20273;-78
2021/07/28 06:20:35;;;;;;;6.57;2.83;;;;;;;26.08;65.77;100162.47;5144110;28;20109;-79
2021/07/28 06:23:06;;;;;;;5.57;2.85;;;;;;;25.30;68.26;100169.94;5143951;28;20329;-79
2021/07/28 06:25:36;;;;;;;5.43;2.95;;;;;;;24.45;70.21;100167.97;5183568;28;20030;-79
2021/07/28 06:28:06;;;;;;;6.57;3.10;;;;;;;24.50;70.83;100171.88;5147471;28;20031;-78
2021/07/28 06:30:37;;;;;;;3.53;2.83;;;;;;;25.35;68.28;100164.94;5143814;28;20361;-79
2021/07/28 06:33:07;;;;;;;5.65;3.08;;;;;;;25.30;68.55;100168.06;5144089;28;20648;-79
2021/07/28 06:35:37;;;;;;;4.97;3.03;;;;;;;24.90;69.10;100177.59;5143812;28;20348;-78
2021/07/28 06:38:08;;;;;;;6.37;2.93;;;;;;;25.74;67.28;100176.84;5146967;28;20277;-78
2021/07/28 06:40:38;;;;;;;5.23;2.80;;;;;;;26.44;65.20;100176.47;5152277;28;20101;-76
2021/07/28 06:43:09;;;;;;;6.90;3.38;;;;;;;26.66;63.86;100176.69;5142093;28;20815;-77
2021/07/28 06:45:40;;;;;;;6.70;3.83;;;;;;;26.38;65.63;100177.13;5144959;28;20023;-79
2021/07/28 06:48:10;;;;;;;12.25;4.82;;;;;;;26.70;64.13;100171.84;5144735;28;20029;-78
2021/07/28 06:50:40;;;;;;;5.95;3.80;;;;;;;26.19;64.94;100172.06;5142768;28;20023;-78
2021/07/28 06:53:10;;;;;;;6.20;3.10;;;;;;;26.36;65.79;100163.88;5144104;28;20050;-80
2021/07/28 06:55:41;;;;;;;6.47;2.83;;;;;;;26.66;64.22;100157.09;5151426;28;20045;-80
2021/07/28 06:58:11;;;;;;;4.27;3.03;;;;;;;27.89;61.23;100152.91;5147431;28;20062;-79
2021/07/28 07:00:41;;;;;;;4.83;2.93;;;;;;;26.96;62.56;100158.09;5144013;28;20274;-78
2021/07/28 07:03:12;;;;;;;4.63;2.70;;;;;;;28.11;60.22;100144.06;5143246;28;20034;-80
2021/07/28 07:05:42;;;;;;;5.27;2.80;;;;;;;27.26;60.96;100157.44;5144070;28;20795;-77
2021/07/28 07:08:13;;;;;;;3.63;2.43;;;;;;;29.46;57.98;100138.63;5147448;28;20284;-79
2021/07/28 07:10:43;;;;;;;4.57;2.53;;;;;;;29.35;57.82;100149.84;5151077;28;20648;-80
2021/07/28 07:13:13;;;;;;;4.90;2.50;;;;;;;28.45;60.13;100149.94;5142406;28;20038;-77
2021/07/28 07:15:44;;;;;;;4.67;2.60;;;;;;;29.41;58.03;100149.94;5143313;28;20042;-79
2021/07/28 07:18:14;;;;;;;6.53;2.93;;;;;;;29.78;56.45;100157.16;5144186;28;20158;-78
2021/07/28 07:20:45;;;;;;;5.15;2.97;;;;;;;29.33;56.82;100151.88;5143842;28;20073;-78
2021/07/28 07:23:15;;;;;;;4.53;2.42;;;;;;;29.29;57.31;100161.38;5143729;28;20031;-77
2021/07/28 07:25:45;;;;;;;4.17;2.37;;;;;;;27.55;60.45;100165.75;5151212;28;20027;-79
2021/07/28 07:28:15;;;;;;;3.37;2.20;;;;;;;26.45;63.29;100173.63;5147248;28;20648;-79
2021/07/28 07:30:46;;;;;;;3.93;2.40;;;;;;;27.68;60.57;100168.75;5146469;28;20031;-76
2021/07/28 07:36:15;;;;;;;4.03;2.60;;;;;;;29.07;57.26;100165.78;5147295;28;20093;-77
2021/07/28 07:38:45;;;;;;;8.23;2.63;;;;;;;30.48;56.07;100155.53;5147356;28;20105;-78
2021/07/28 07:41:16;;;;;;;4.18;2.60;;;;;;;30.54;55.56;100163.72;5154129;28;20051;-78
2021/07/28 07:43:46;;;;;;;4.32;2.75;;;;;;;29.70;56.38;100165.31;5147688;28;20022;-79
2021/07/28 07:46:16;;;;;;;4.67;2.30;;;;;;;30.97;54.55;100157.28;5147475;28;20378;-78
2021/07/28 07:48:46;;;;;;;5.03;2.80;;;;;;;29.11;57.49;100160.88;5146408;28;20034;-80
2021/07/28 07:51:17;;;;;;;5.10;3.10;;;;;;;29.73;56.08;100149.63;5145974;28;20037;-81
2021/07/28 07:53:50;;;;;;;4.80;2.60;;;;;;;29.38;56.53;100155.72;5146351;28;20085;-78
2021/07/28 07:56:20;;;;;;;4.40;2.70;;;;;;;30.22;55.34;100149.88;5152823;28;20109;-79
2021/07/28 07:58:51;;;;;;;5.70;2.67;;;;;;;31.62;53.50;100155.94;5151282;28;20062;-79
2021/07/28 08:01:21;;;;;;;5.55;2.55;;;;;;;31.06;55.19;100151.56;5147967;28;20026;-79
2021/07/28 08:03:51;;;;;;;7.40;2.80;;;;;;;31.54;54.45;100145.28;5146053;28;20038;-81
2021/07/28 08:06:22;;;;;;;4.43;2.67;;;;;;;30.00;56.40;100161.56;5144407;28;20026;-81
2021/07/28 08:08:52;;;;;;;4.05;2.10;;;;;;;31.22;53.77;100155.88;5149400;28;20277;-80
2021/07/28 08:11:22;;;;;;;5.03;2.40;;;;;;;32.90;51.45;100145.00;5152159;28;20114;-80
2021/07/28 08:13:52;;;;;;;7.37;2.67;;;;;;;32.20;51.88;100152.75;5146039;28;20442;-81
2021/07/28 08:16:25;;;;;;;4.90;2.70;;;;;;;33.03;49.52;100150.41;5145984;28;20070;-81
2021/07/28 08:18:55;;;;;;;5.25;2.60;;;;;;;33.87;50.29;100141.38;5144550;28;20026;-81
2021/07/28 08:21:25;;;;;;;5.65;2.80;;;;;;;32.43;52.89;100141.56;5146779;28;20033;-81
2021/07/28 08:23:56;;;;;;;5.40;2.60;;;;;;;31.38;52.41;100147.47;5151941;28;20029;-81
2021/07/28 08:26:26;;;;;;;5.93;2.70;;;;;;;33.23;50.75;100135.00;5157573;28;20022;-80
2021/07/28 08:28:56;;;;;;;8.80;3.47;;;;;;;31.24;52.79;100148.41;5143538;28;20278;-80
2021/07/28 08:31:26;;;;;;;6.90;3.20;;;;;;;29.26;56.90;100146.41;5145039;28;20023;-80
2021/07/28 08:33:57;;;;;;;7.03;3.37;;;;;;;30.64;54.13;100152.63;5145290;28;20309;-80
2021/07/28 08:36:27;;;;;;;10.23;4.00;;;;;;;28.57;57.85;100151.19;5145630;28;20302;-79
2021/07/28 08:38:57;;;;;;;8.10;3.47;;;;;;;29.48;58.60;100147.38;5149271;28;20106;-79
2021/07/28 08:41:29;;;;;;;4.30;2.50;;;;;;;31.47;53.16;100141.72;5149488;28;20041;-80
2021/07/28 08:43:59;;;;;;;4.22;2.70;;;;;;;30.71;55.47;100151.66;5143471;28;20508;-80
2021/07/28 08:46:29;;;;;;;5.13;2.57;;;;;;;30.74;54.76;100147.75;5144699;28;20034;-79
2021/07/28 08:49:01;;;;;;;8.02;2.90;;;;;;;28.96;58.19;100151.91;5144512;28;20520;-79
2021/07/28 08:51:32;;;;;;;7.60;3.10;;;;;;;29.05;58.04;100150.84;5143168;28;20503;-79
2021/07/28 08:54:02;;;;;;;7.10;2.75;;;;;;;27.83;60.81;100150.94;5145616;28;20030;-79
2021/07/28 08:56:38;;;;;;;8.07;3.13;;;;;;;26.99;62.92;100160.47;5152377;28;20026;-79
2021/07/28 08:59:32;;;;;;;6.85;3.08;;;;;;;27.07;63.07;100154.25;5144664;28;20278;-79
2021/07/28 09:02:03;;;;;;;6.65;3.22;;;;;;;27.43;61.50;100151.00;5142764;28;20031;-79
2021/07/28 09:04:33;;;;;;;7.55;2.90;;;;;;;29.64;58.69;100139.97;5144590;28;20027;-79
2021/07/28 09:07:13;;;;;;;8.68;2.80;;;;;;;29.91;57.34;100144.66;5144771;28;20030;-79
2021/07/28 09:09:57;;;;;;;4.35;2.67;;;;;;;31.50;54.57;100143.19;5147820;28;20065;-79
2021/07/28 09:12:35;;;;;;;6.82;2.83;;;;;;;29.61;56.23;100152.97;5140018;28;20572;-79
2021/07/28 09:15:08;;;;;;;5.18;2.50;;;;;;;31.20;54.31;100145.25;5144495;28;20341;-79
2021/07/28 09:17:44;;;;;;;10.35;2.75;;;;;;;31.94;52.36;100147.22;5145947;28;20035;-79
2021/07/28 09:20:24;;;;;;;4.75;2.50;;;;;;;31.93;52.58;100145.53;5145131;28;20401;-80
2021/07/28 09:23:10;;;;;;;3.33;2.40;;;;;;;30.50;55.45;100145.38;5141552;28;20030;-79
2021/07/28 09:25:40;;;;;;;6.57;2.60;;;;;;;29.03;57.51;100158.25;5149675;28;20023;-79
2021/07/28 09:28:19;;;;;;;3.92;2.60;;;;;;;27.99;59.21;100155.38;5148416;28;20173;-79
2021/07/28 09:30:50;;;;;;;6.18;2.75;;;;;;;27.89;59.70;100144.84;5140226;28;20409;-79
2021/07/28 09:33:20;;;;;;;5.90;2.93;;;;;;;27.25;61.37;100154.94;5143691;28;20023;-78
2021/07/28 09:35:53;;;;;;;6.22;3.28;;;;;;;26.40;63.67;100153.66;5143773;28;20832;-79
2021/07/28 09:38:34;;;;;;;6.82;2.80;;;;;;;26.43;65.15;100143.47;5147284;28;20030;-79
2021/07/28 09:41:36;;;;;;;5.05;2.90;;;;;;;26.98;64.05;100152.56;5150562;28;20093;-79
2021/07/28 09:44:06;;;;;;;7.95;3.10;;;;;;;27.68;63.71;100144.56;5142130;28;20027;-78
2021/07/28 09:46:38;;;;;;;6.68;2.92;;;;;;;27.58;62.81;100146.59;5142481;28;20504;-79
2021/07/28 09:49:17;;;;;;;8.90;3.33;;;;;;;26.67;63.32;100153.41;5142569;28;20046;-78
2021/07/28 09:51:47;;;;;;;8.55;2.90;;;;;;;26.80;62.70;100146.53;5139012;28;20030;-79
2021/07/28 09:54:17;;;;;;;4.45;3.10;;;;;;;26.65;62.13;100152.75;5146340;28;20027;-79
2021/07/28 09:56:53;;;;;;;4.87;3.30;;;;;;;25.61;65.46;100144.31;5150687;28;20065;-79
2021/07/28 09:59:24;;;;;;;8.15;3.33;;;;;;;26.89;64.11;100138.31;5141603;28;20033;-78
2021/07/28 10:01:55;;;;;;;8.60;3.30;;;;;;;26.45;63.41;100143.28;5142316;28;20026;-79
2021/07/28 10:04:29;;;;;;;6.80;3.20;;;;;;;25.85;65.41;100136.44;5143358;28;20031;-78
2021/07/28 10:07:01;;;;;;;5.85;3.20;;;;;;;26.27;64.52;100142.59;5141728;28;20489;-79
2021/07/28 10:09:36;;;;;;;8.50;3.13;;;;;;;27.07;62.13;100138.97;5149300;28;20034;-79
2021/07/28 10:12:07;;;;;;;;;;;;;;;26.70;62.31;100140.50;5147101;28;20053;-79
2021/07/28 10:14:40;;;;;;;5.90;3.00;;;;;;;26.73;63.15;100143.69;5142858;28;19981;-79
2021/07/28 10:17:12;;;;;;;5.68;2.92;;;;;;;26.30;65.15;100140.41;5141435;28;20311;-79
2021/07/28 10:19:42;;;;;;;5.68;3.00;;;;;;;25.76;66.07;100137.38;5140937;28;20113;-79
2021/07/28 10:22:13;;;;;;;5.60;3.10;;;;;;;25.24;67.16;100149.13;5142683;28;20158;-79
2021/07/28 10:24:45;;;;;;;4.43;3.17;;;;;;;25.14;66.73;100145.72;5146147;28;20299;-79
2021/07/28 10:27:16;;;;;;;6.75;2.88;;;;;;;25.97;66.13;100135.16;5150125;28;20023;-78
2021/07/28 10:29:49;;;;;;;7.10;3.10;;;;;;;26.42;65.31;100141.78;5150157;28;20031;-79
2021/07/28 10:32:33;;;;;;;4.88;2.85;;;;;;;26.17;65.02;100131.19;5147926;28;20359;-78
2021/07/28 10:35:23;;;;;;;4.63;2.85;;;;;;;26.00;66.39;100119.56;5145582;28;20374;-78
2021/07/28 10:37:58;;;;;;;4.70;2.83;;;;;;;26.15;66.66;100112.56;5150285;28;20030;-79
2021/07/28 10:40:31;;;;;;;5.05;3.30;;;;;;;26.04;63.90;100110.19;5150505;28;20516;-79
2021/07/28 10:43:02;;;;;;;7.10;2.95;;;;;;;26.05;64.44;100116.41;5141670;28;20201;-79
2021/07/28 10:46:05;;;;;;;6.97;3.03;;;;;;;26.57;64.53;100124.09;5141736;28;20122;-79
2021/07/28 10:48:41;;;;;;;7.18;3.13;;;;;;;26.51;65.93;100124.72;5124046;28;20116;-77
2021/07/28 10:51:54;;;;;;;7.68;2.92;;;;;;;26.78;63.92;100114.50;5146374;28;20030;-78
2021/07/28 10:54:49;;;;;;;5.32;2.80;;;;;;;26.89;63.58;100111.50;5151000;28;20030;-78
2021/07/28 10:57:36;;;;;;;6.22;2.88;;;;;;;26.33;63.07;100110.59;5139273;28;20528;-78
2021/07/28 11:00:08;;;;;;;6.85;2.88;;;;;;;26.54;63.43;100097.56;5141223;28;20031;-78
2021/07/28 11:02:57;;;;;;;4.45;2.50;;;;;;;26.88;63.33;100098.22;5143328;28;20049;-78
2021/07/28 11:05:29;;;;;;;5.95;2.42;;;;;;;26.96;62.01;100085.66;5150227;28;20112;-77
2021/07/28 11:08:02;;;;;;;4.80;2.95;;;;;;;26.71;61.84;100093.88;5151331;28;20019;-78
2021/07/28 11:10:33;;;;;;;6.07;2.55;;;;;;;26.46;65.24;100096.69;5150821;28;20121;-78
2021/07/28 11:13:08;;;;;;;6.27;2.93;;;;;;;26.40;64.35;100105.41;5146695;28;20181;-78
2021/07/28 11:15:40;;;;;;;7.82;2.65;;;;;;;26.47;64.19;100106.41;5147182;28;20027;-79
2021/07/28 11:18:10;;;;;;;7.40;2.80;;;;;;;26.70;63.91;100089.53;5148377;28;20516;-79
2021/07/28 11:20:41;;;;;;;6.43;2.60;;;;;;;26.71;63.31;100076.97;5148534;28;20033;-79
2021/07/28 11:23:29;;;;;;;5.73;2.60;;;;;;;26.74;63.01;100078.31;5147840;28;20289;-78
2021/07/28 11:26:01;;;;;;;5.88;2.67;;;;;;;26.31;63.94;100079.63;5158203;28;20339;-78
2021/07/28 11:28:32;;;;;;;4.35;2.63;;;;;;;26.45;64.99;100074.44;5150575;28;20026;-78
2021/07/28 11:31:08;;;;;;;4.50;2.40;;;;;;;26.45;64.41;100077.13;5144954;28;20026;-78
2021/07/28 11:33:39;;;;;;;5.15;2.20;;;;;;;25.92;64.81;100066.00;5151045;28;20309;-79
2021/07/28 11:36:09;;;;;;;4.15;2.53;;;;;;;26.29;64.16;100057.47;5148410;28;20129;-78
2021/07/28 11:38:39;;;;;;;4.50;2.65;;;;;;;26.51;64.11;100054.19;5156685;28;20173;-78
2021/07/28 11:41:10;;;;;;;4.68;2.10;;;;;;;26.96;61.97;100049.94;5155208;28;20034;-78
2021/07/28 11:43:41;;;;;;;3.78;2.40;;;;;;;27.11;63.73;100054.44;5146007;28;20025;-78
2021/07/28 11:46:15;;;;;;;6.50;2.28;;;;;;;27.16;63.14;100049.44;5144852;28;20027;-78
2021/07/28 11:48:50;;;;;;;3.30;2.28;;;;;;;27.24;61.26;100056.63;5140491;28;20030;-78
2021/07/28 11:51:35;;;;;;;4.50;2.30;;;;;;;27.23;61.90;100062.97;5144107;28;20101;-78